Terminal Aerodrome Forecast
Issued by NWS

Home | Current Version | Previous Version | Text Only | Print | Product List | Glossary On
Versions: 1 2 3 4 5 6 7 8 9 10 11 12 13 14 15 16 17 18 19 20 21 22
000
FTUS41 KRNK 060259 AAA
TAFBCB
TAF AMD
KBCB 060259Z 0603/0624 29005KT 6SM -SHRA OVC025
     FM060500 30005KT 6SM -SHRA OVC012
     FM061500 31008KT P6SM -SHRA OVC025=

USA.gov is the U.S. government's official web portal to all federal, state and local government web resources and services.